^^

..:: Storico WU ::.. Logo MeteoMincio




  Full-screen


Lo storico viene creato da WUnderground con i dati che la stazione Meteomincio invia dal 15 maggio 2010. L' aggiornamento viene fatto ogni 5 minuti circa, tuttavia possono esserci intervalli più ampi a causa di errori, interruzioni di servizio o problemi nell' invio tramite FTP.

Storico stazione MeteoMincio
 
Giorno Sommario per Dicembre 15, 2017 Unità:  Metrico    Inglese   Entrambi
« Precedente Giorno
Prossimo Giorno »
Giorno Settimana Mese Anno Custom
  Corrente: Max: Min: Media:
Temperatura: 0.8 °C 5.3 °C 0.7 °C 3.2 °C
Dew Point: 0.1 °C 4.1 °C 0.0 °C 2.4 °C
Humidità: 95 % 95 % 91 % 94 %
Velocità vento: 22.5 km/h 22.5 km/h 1.6 km/h 19.6 km/h
Raffica: 22.5 km/h 22.5 km/h - -
Direzione:WNW - - SSW
Pressione: 998.2 hPa 1001.9 hPa 997.5 hPa -
Precipitazioni: 0.0 mm      
Historical Graphs
 
 
Tabulato Dati per Dicembre 15, 2017
Ora Temperatura Dew Point Pressione Direzione Velocità vento Raffica Umidità Intensità pioggia (oraria) Info solare Situazione
00:00 2.3 °C 1.6 °C 1001.9 hPa ENE 18.5 km/h 18.5 km/h 95 % 0.0 mm 0.0 W/m2 BKN
00:05 2.3 °C 1.6 °C 1001.9 hPa ENE 4.8 km/h 11.3 km/h 95 % 0.0 mm 0.0 W/m2 RA
00:10 2.4 °C 1.7 °C 1001.9 hPa ENE 9.7 km/h 11.3 km/h 95 % 0.0 mm 0.0 W/m2 RA
00:15 2.4 °C 1.7 °C 1001.9 hPa East 4.8 km/h 14.5 km/h 95 % 0.0 mm 0.0 W/m2 BKN
00:20 2.4 °C 1.7 °C 1001.6 hPa ENE 18.5 km/h 18.5 km/h 95 % 0.0 mm 0.0 W/m2 BKN
00:25 2.3 °C 1.6 °C 1001.6 hPa East 18.5 km/h 18.5 km/h 95 % 0.0 mm 0.0 W/m2 BKN
00:26 2.4 °C 1.7 °C 1001.6 hPa ENE 18.5 km/h 18.5 km/h 95 % 0.0 mm 0.0 W/m2 BKN
00:31 2.5 °C 1.8 °C 1001.6 hPa ENE 18.5 km/h 18.5 km/h 95 % 0.0 mm 0.0 W/m2 BKN
00:36 2.4 °C 1.7 °C 1001.6 hPa ENE 18.5 km/h 18.5 km/h 95 % 0.0 mm 0.0 W/m2 BKN
00:41 2.3 °C 1.6 °C 1001.6 hPa NE 18.5 km/h 18.5 km/h 95 % 0.0 mm 0.0 W/m2 BKN
00:46 2.3 °C 1.6 °C 1001.2 hPa NE 18.5 km/h 18.5 km/h 95 % 0.0 mm 0.0 W/m2 BKN
00:51 2.3 °C 1.6 °C 1001.2 hPa East 18.5 km/h 18.5 km/h 95 % 0.0 mm 0.0 W/m2 BKN
00:56 2.3 °C 1.6 °C 1001.2 hPa NE 18.5 km/h 18.5 km/h 95 % 0.0 mm 0.0 W/m2 BKN
01:01 2.3 °C 1.6 °C 1001.2 hPa NE 18.5 km/h 18.5 km/h 95 % 0.0 mm 0.0 W/m2 BKN
01:06 2.3 °C 1.6 °C 1001.2 hPa ENE 18.5 km/h 18.5 km/h 95 % 0.0 mm 0.0 W/m2 BKN
01:11 2.2 °C 1.5 °C 1001.2 hPa ENE 18.5 km/h 18.5 km/h 95 % 0.0 mm 0.0 W/m2 BKN
01:16 2.1 °C 1.4 °C 1001.2 hPa ENE 18.5 km/h 18.5 km/h 95 % 0.0 mm 0.0 W/m2 BKN
01:21 2.1 °C 1.4 °C 1000.9 hPa NE 18.5 km/h 18.5 km/h 95 % 0.0 mm 0.0 W/m2 BKN
01:27 2.1 °C 1.3 °C 1000.9 hPa ENE 18.5 km/h 18.5 km/h 95 % 0.0 mm 0.0 W/m2 BKN
01:32 2.3 °C 1.6 °C 1000.9 hPa ENE 18.5 km/h 18.5 km/h 95 % 0.0 mm 0.0 W/m2 BKN
01:37 2.2 °C 1.5 °C 1000.9 hPa ENE 18.5 km/h 18.5 km/h 95 % 0.0 mm 0.0 W/m2 BKN
01:41 2.2 °C 1.4 °C 1000.6 hPa ENE 18.5 km/h 18.5 km/h 95 % 0.0 mm 0.0 W/m2 BKN
01:46 2.2 °C 1.5 °C 1000.6 hPa NE 18.5 km/h 18.5 km/h 95 % 0.0 mm 0.0 W/m2 BKN
01:51 2.2 °C 1.4 °C 1000.6 hPa ENE 18.5 km/h 18.5 km/h 95 % 0.0 mm 0.0 W/m2 BKN
01:57 2.1 °C 1.3 °C 1000.6 hPa NE 18.5 km/h 18.5 km/h 95 % 0.0 mm 0.0 W/m2 BKN
02:02 2.1 °C 1.3 °C 1000.6 hPa ENE 18.5 km/h 18.5 km/h 95 % 0.0 mm 0.0 W/m2 BKN
02:07 2.1 °C 1.4 °C 1000.6 hPa ENE 18.5 km/h 18.5 km/h 95 % 0.0 mm 0.0 W/m2 BKN
02:12 2.3 °C 1.6 °C 1000.6 hPa East 18.5 km/h 18.5 km/h 95 % 0.0 mm 0.0 W/m2 BKN
02:17 2.4 °C 1.7 °C 1000.6 hPa East 18.5 km/h 18.5 km/h 95 % 0.0 mm 0.0 W/m2 BKN
02:19 2.5 °C 1.8 °C 1000.6 hPa ENE 18.5 km/h 18.5 km/h 95 % 0.0 mm 0.0 W/m2 BKN
02:25 2.4 °C 1.7 °C 1000.6 hPa NE 18.5 km/h 18.5 km/h 95 % 0.0 mm 0.0 W/m2 BKN
02:29 2.6 °C 1.8 °C 1000.6 hPa East 18.5 km/h 18.5 km/h 95 % 0.0 mm 0.0 W/m2 BKN
02:34 2.6 °C 1.9 °C 1000.6 hPa ENE 18.5 km/h 18.5 km/h 95 % 0.0 mm 0.0 W/m2 BKN
02:39 2.7 °C 1.9 °C 1000.6 hPa NE 18.5 km/h 18.5 km/h 95 % 0.0 mm 0.0 W/m2 BKN
02:44 2.7 °C 1.9 °C 1000.6 hPa ENE 18.5 km/h 18.5 km/h 95 % 0.0 mm 0.0 W/m2 BKN
02:49 2.7 °C 1.9 °C 1000.2 hPa East 18.5 km/h 18.5 km/h 95 % 0.0 mm 0.0 W/m2 BKN
02:55 2.7 °C 2.0 °C 1000.2 hPa ENE 18.5 km/h 18.5 km/h 95 % 0.0 mm 0.0 W/m2 BKN
03:00 2.8 °C 2.1 °C 1000.2 hPa ENE 18.5 km/h 18.5 km/h 95 % 0.0 mm 0.0 W/m2 BKN
03:05 2.8 °C 2.1 °C 1000.2 hPa East 18.5 km/h 18.5 km/h 95 % 0.0 mm 0.0 W/m2 BKN
03:10 2.8 °C 2.1 °C 999.9 hPa ENE 18.5 km/h 18.5 km/h 95 % 0.0 mm 0.0 W/m2 BKN
03:15 2.8 °C 2.1 °C 999.9 hPa ENE 8.0 km/h 12.9 km/h 95 % 0.0 mm 0.0 W/m2 BKN
03:20 2.8 °C 2.1 °C 999.9 hPa East 18.5 km/h 18.5 km/h 95 % 0.0 mm 0.0 W/m2 BKN
03:25 2.9 °C 2.2 °C 999.9 hPa ENE 8.0 km/h 14.5 km/h 95 % 0.0 mm 0.0 W/m2 BKN
03:30 2.9 °C 2.2 °C 999.9 hPa East 18.5 km/h 18.5 km/h 95 % 0.0 mm 0.0 W/m2 BKN
03:35 3.0 °C 2.3 °C 999.5 hPa East 18.5 km/h 18.5 km/h 95 % 0.0 mm 0.0 W/m2 BKN
03:40 3.0 °C 2.3 °C 999.5 hPa East 9.7 km/h 14.5 km/h 95 % 0.0 mm 0.0 W/m2 BKN
03:45 3.2 °C 2.4 °C 999.5 hPa ENE 8.0 km/h 16.1 km/h 95 % 0.0 mm 0.0 W/m2 BKN
03:50 3.3 °C 2.6 °C 999.2 hPa ENE 18.5 km/h 18.5 km/h 95 % 0.0 mm 0.0 W/m2 BKN
03:55 3.3 °C 2.6 °C 999.2 hPa ENE 4.8 km/h 11.3 km/h 95 % 0.0 mm 0.0 W/m2 BKN
04:00 3.3 °C 2.6 °C 999.2 hPa ENE 18.5 km/h 18.5 km/h 95 % 0.0 mm 0.0 W/m2 BKN
04:05 3.3 °C 2.6 °C 999.2 hPa ENE 18.5 km/h 18.5 km/h 95 % 0.0 mm 0.0 W/m2 BKN
04:10 3.4 °C 2.7 °C 999.2 hPa East 18.5 km/h 18.5 km/h 95 % 0.0 mm 0.0 W/m2 BKN
04:15 3.4 °C 2.7 °C 998.9 hPa ENE 18.5 km/h 18.5 km/h 95 % 0.0 mm 0.0 W/m2 BKN
04:20 3.4 °C 2.7 °C 998.9 hPa NE 18.5 km/h 18.5 km/h 95 % 0.0 mm 0.0 W/m2 BKN
04:22 3.4 °C 2.7 °C 998.9 hPa NE 18.5 km/h 18.5 km/h 95 % 0.0 mm 0.0 W/m2 BKN
04:27 3.4 °C 2.7 °C 998.9 hPa ENE 18.5 km/h 18.5 km/h 95 % 0.0 mm 0.0 W/m2 BKN
04:32 3.4 °C 2.7 °C 998.9 hPa ENE 18.5 km/h 18.5 km/h 95 % 0.0 mm 0.0 W/m2 BKN
04:37 3.4 °C 2.7 °C 998.9 hPa ENE 18.5 km/h 18.5 km/h 95 % 0.0 mm 0.0 W/m2 BKN
04:42 3.4 °C 2.7 °C 998.9 hPa ENE 18.5 km/h 18.5 km/h 95 % 0.0 mm 0.0 W/m2 BKN
04:47 3.4 °C 2.7 °C 998.9 hPa ENE 18.5 km/h 18.5 km/h 95 % 0.0 mm 0.0 W/m2 BKN
04:52 3.5 °C 2.8 °C 998.9 hPa East 18.5 km/h 18.5 km/h 95 % 0.0 mm 0.0 W/m2 BKN
04:57 3.6 °C 2.8 °C 998.5 hPa ENE 18.5 km/h 18.5 km/h 95 % 0.0 mm 0.0 W/m2 BKN
05:02 3.6 °C 2.9 °C 998.5 hPa ENE 18.5 km/h 18.5 km/h 95 % 0.0 mm 0.0 W/m2 BKN
05:07 3.6 °C 2.9 °C 998.2 hPa ENE 18.5 km/h 18.5 km/h 95 % 0.0 mm 0.0 W/m2 BKN
05:12 3.6 °C 2.9 °C 998.2 hPa ENE 18.5 km/h 18.5 km/h 95 % 0.0 mm 0.0 W/m2 BKN
05:17 3.6 °C 2.7 °C 998.2 hPa East 18.5 km/h 18.5 km/h 94 % 0.0 mm 0.0 W/m2 BKN
05:22 3.6 °C 2.7 °C 998.2 hPa ENE 18.5 km/h 18.5 km/h 94 % 0.0 mm 0.0 W/m2 BKN
05:27 3.7 °C 2.8 °C 998.2 hPa ENE 18.5 km/h 18.5 km/h 94 % 0.0 mm 0.0 W/m2 BKN
05:32 3.7 °C 2.8 °C 998.5 hPa ENE 18.5 km/h 18.5 km/h 94 % 0.0 mm 0.0 W/m2 BKN
05:37 3.6 °C 2.7 °C 998.5 hPa NE 18.5 km/h 18.5 km/h 94 % 0.0 mm 0.0 W/m2 BKN
05:42 3.7 °C 2.8 °C 998.5 hPa ENE 18.5 km/h 18.5 km/h 94 % 0.0 mm 0.0 W/m2 BKN
05:45 3.7 °C 2.8 °C 998.5 hPa NE 18.5 km/h 18.5 km/h 94 % 0.0 mm 0.0 W/m2 BKN
05:50 3.7 °C 2.8 °C 998.5 hPa NE 18.5 km/h 18.5 km/h 94 % 0.0 mm 0.0 W/m2 BKN
05:55 3.7 °C 2.8 °C 998.2 hPa ENE 18.5 km/h 18.5 km/h 94 % 0.0 mm 0.0 W/m2 BKN
06:00 3.8 °C 2.9 °C 998.2 hPa NE 18.5 km/h 18.5 km/h 94 % 0.0 mm 0.0 W/m2 BKN
06:05 3.7 °C 2.8 °C 998.2 hPa NE 18.5 km/h 18.5 km/h 94 % 0.0 mm 0.0 W/m2 BKN
06:10 3.8 °C 2.9 °C 998.2 hPa ENE 18.5 km/h 18.5 km/h 94 % 0.0 mm 0.0 W/m2 BKN
06:15 3.8 °C 2.9 °C 998.5 hPa ENE 18.5 km/h 18.5 km/h 94 % 0.0 mm 0.0 W/m2 BKN
06:20 3.9 °C 3.0 °C 998.5 hPa ENE 18.5 km/h 18.5 km/h 94 % 0.0 mm 0.0 W/m2 BKN
06:25 3.9 °C 3.1 °C 998.5 hPa ENE 18.5 km/h 18.5 km/h 94 % 0.0 mm 0.0 W/m2 BKN
06:30 3.9 °C 3.0 °C 998.5 hPa NE 18.5 km/h 18.5 km/h 94 % 0.0 mm 0.0 W/m2 BKN
06:35 3.9 °C 2.8 °C 998.5 hPa NE 18.5 km/h 18.5 km/h 93 % 0.0 mm 0.0 W/m2 BKN
06:40 3.9 °C 3.1 °C 998.5 hPa ENE 18.5 km/h 18.5 km/h 94 % 0.0 mm 0.0 W/m2 BKN
06:45 4.0 °C 2.9 °C 998.9 hPa ENE 18.5 km/h 18.5 km/h 93 % 0.0 mm 0.0 W/m2 BKN
06:50 4.1 °C 3.1 °C 998.5 hPa NE 18.5 km/h 18.5 km/h 93 % 0.0 mm 0.0 W/m2 BKN
06:51 4.1 °C 3.1 °C 998.5 hPa NE 18.5 km/h 18.5 km/h 93 % 0.0 mm 0.0 W/m2 BKN
06:56 4.2 °C 3.1 °C 998.5 hPa ENE 18.5 km/h 18.5 km/h 93 % 0.0 mm 0.0 W/m2 BKN
07:01 4.2 °C 3.2 °C 998.5 hPa ENE 18.5 km/h 18.5 km/h 93 % 0.0 mm 0.0 W/m2 BKN
07:06 4.1 °C 3.0 °C 998.5 hPa ENE 18.5 km/h 18.5 km/h 93 % 0.0 mm 0.0 W/m2 BKN
07:11 4.0 °C 2.9 °C 998.9 hPa ENE 18.5 km/h 18.5 km/h 93 % 0.0 mm 0.0 W/m2 BKN
07:16 4.0 °C 2.9 °C 998.9 hPa ENE 18.5 km/h 18.5 km/h 93 % 0.0 mm 0.0 W/m2 BKN
07:21 4.0 °C 2.9 °C 998.9 hPa East 18.5 km/h 18.5 km/h 93 % 0.0 mm 0.0 W/m2 BKN
07:26 3.9 °C 2.9 °C 998.9 hPa ENE 18.5 km/h 18.5 km/h 93 % 0.0 mm 0.0 W/m2 BKN
07:31 3.9 °C 2.9 °C 998.9 hPa ENE 18.5 km/h 18.5 km/h 93 % 0.0 mm 0.0 W/m2 BKN
07:33 3.9 °C 2.9 °C 998.9 hPa ENE 18.5 km/h 18.5 km/h 93 % 0.0 mm 0.0 W/m2 SCT
07:37 4.0 °C 2.9 °C 998.9 hPa ENE 18.5 km/h 18.5 km/h 93 % 0.0 mm 0.0 W/m2 SCT
07:39 4.0 °C 2.9 °C 998.9 hPa NE 18.5 km/h 18.5 km/h 93 % 0.0 mm 0.0 W/m2 SCT
07:44 4.1 °C 3.0 °C 998.9 hPa ENE 18.5 km/h 18.5 km/h 93 % 0.0 mm 0.0 W/m2 SCT
07:49 4.1 °C 3.1 °C 998.9 hPa ENE 18.5 km/h 18.5 km/h 93 % 0.0 mm 0.0 W/m2 SCT
07:54 4.2 °C 3.2 °C 998.9 hPa East 18.5 km/h 18.5 km/h 93 % 0.0 mm 0.0 W/m2 SCT
07:59 4.2 °C 3.1 °C 998.9 hPa ENE 18.5 km/h 18.5 km/h 93 % 0.0 mm 0.0 W/m2 SCT
08:04 4.1 °C 3.1 °C 998.9 hPa East 18.5 km/h 18.5 km/h 93 % 0.0 mm 5.0 W/m2 BKN
08:09 4.1 °C 3.1 °C 999.2 hPa East 18.5 km/h 18.5 km/h 93 % 0.0 mm 9.0 W/m2 BKN
08:14 4.0 °C 2.9 °C 999.2 hPa ENE 18.5 km/h 18.5 km/h 93 % 0.0 mm 11.0 W/m2 BKN
08:19 3.9 °C 2.8 °C 999.5 hPa SSW 18.5 km/h 18.5 km/h 93 % 0.0 mm 11.0 W/m2 BKN
08:24 3.9 °C 2.9 °C 999.5 hPa SSW 18.5 km/h 18.5 km/h 93 % 0.0 mm 14.0 W/m2 BKN
08:29 3.8 °C 2.7 °C 999.5 hPa SSW 18.5 km/h 18.5 km/h 93 % 0.0 mm 18.0 W/m2 BKN
08:34 3.8 °C 2.7 °C 999.5 hPa WSW 18.5 km/h 18.5 km/h 93 % 0.0 mm 21.0 W/m2 BKN
08:39 3.8 °C 2.7 °C 999.5 hPa WSW 18.5 km/h 18.5 km/h 93 % 0.0 mm 25.0 W/m2 BKN
08:44 3.6 °C 2.6 °C 999.9 hPa SW 18.5 km/h 18.5 km/h 93 % 0.0 mm 26.0 W/m2 BKN
08:49 3.3 °C 2.3 °C 999.9 hPa WSW 18.5 km/h 18.5 km/h 93 % 0.0 mm 30.0 W/m2 BKN
08:54 3.2 °C 2.2 °C 999.9 hPa WSW 18.5 km/h 18.5 km/h 93 % 0.0 mm 37.0 W/m2 BKN
08:59 3.1 °C 2.1 °C 999.9 hPa West 18.5 km/h 18.5 km/h 93 % 0.0 mm 46.0 W/m2 BKN
09:04 3.0 °C 2.0 °C 1000.2 hPa WSW 18.5 km/h 18.5 km/h 93 % 0.0 mm 49.0 W/m2 BKN
09:09 3.1 °C 2.1 °C 1000.2 hPa West 18.5 km/h 18.5 km/h 93 % 0.0 mm 60.0 W/m2 BKN
09:14 3.1 °C 2.2 °C 1000.2 hPa West 18.5 km/h 18.5 km/h 94 % 0.0 mm 65.0 W/m2 BKN
09:19 3.1 °C 2.2 °C 1000.2 hPa WSW 18.5 km/h 18.5 km/h 94 % 0.0 mm 62.0 W/m2 BKN
09:24 3.1 °C 2.2 °C 1000.2 hPa WSW 18.5 km/h 18.5 km/h 94 % 0.0 mm 67.0 W/m2 BKN
09:29 3.1 °C 2.2 °C 999.9 hPa WSW 18.5 km/h 18.5 km/h 94 % 0.0 mm 81.0 W/m2 BKN
09:34 3.1 °C 2.2 °C 999.9 hPa West 18.5 km/h 18.5 km/h 94 % 0.0 mm 88.0 W/m2 BKN
09:39 3.2 °C 2.3 °C 1000.2 hPa SW 18.5 km/h 18.5 km/h 94 % 0.0 mm 83.0 W/m2 BKN
09:44 3.3 °C 2.4 °C 1000.2 hPa NW 18.5 km/h 18.5 km/h 94 % 0.0 mm 79.0 W/m2 BKN
09:49 3.3 °C 2.4 °C 1000.2 hPa NW 18.5 km/h 18.5 km/h 94 % 0.0 mm 100.0 W/m2 BKN
09:55 3.6 °C 2.7 °C 1000.2 hPa WNW 8.0 km/h 11.3 km/h 94 % 0.0 mm 167.0 W/m2 BKN
10:00 3.7 °C 2.8 °C 1000.2 hPa West 18.5 km/h 18.5 km/h 94 % 0.0 mm 163.0 W/m2 BKN
10:05 3.9 °C 3.0 °C 1000.2 hPa West 18.5 km/h 18.5 km/h 94 % 0.0 mm 141.0 W/m2 BKN
10:10 4.1 °C 3.2 °C 1000.2 hPa NW 18.5 km/h 18.5 km/h 94 % 0.0 mm 135.0 W/m2 BKN
10:15 4.3 °C 3.4 °C 1000.2 hPa NW 18.5 km/h 18.5 km/h 94 % 0.0 mm 149.0 W/m2 BKN
10:20 4.7 °C 3.8 °C 1000.6 hPa West 18.5 km/h 18.5 km/h 94 % 0.0 mm 149.0 W/m2 BKN
10:25 4.8 °C 3.9 °C 1000.6 hPa WNW 18.5 km/h 18.5 km/h 94 % 0.0 mm 134.0 W/m2 BKN
10:30 4.9 °C 3.8 °C 1000.6 hPa NW 3.2 km/h 9.7 km/h 93 % 0.0 mm 123.0 W/m2 BKN
10:35 4.9 °C 3.9 °C 1000.2 hPa NW 1.6 km/h 9.7 km/h 93 % 0.0 mm 121.0 W/m2 SCT
10:40 5.1 °C 4.0 °C 1000.2 hPa NW 18.5 km/h 18.5 km/h 93 % 0.0 mm 130.0 W/m2 SCT
10:45 5.1 °C 4.0 °C 1000.6 hPa NW 4.8 km/h 14.5 km/h 93 % 0.0 mm 139.0 W/m2 SCT
10:50 5.2 °C 4.0 °C 1000.6 hPa WNW 18.5 km/h 18.5 km/h 92 % 0.0 mm 141.0 W/m2 SCT
10:55 5.3 °C 4.1 °C 1000.6 hPa WNW 9.7 km/h 12.9 km/h 92 % 0.0 mm 137.0 W/m2 SCT
11:00 5.1 °C 3.9 °C 1000.2 hPa NW 18.5 km/h 18.5 km/h 92 % 0.0 mm 135.0 W/m2 SCT
11:05 5.1 °C 3.9 °C 1000.2 hPa WNW 9.7 km/h 19.3 km/h 92 % 0.0 mm 125.0 W/m2 SCT
11:10 5.1 °C 3.9 °C 1000.2 hPa WNW 18.5 km/h 18.5 km/h 92 % 0.0 mm 116.0 W/m2 SCT
11:15 4.6 °C 3.3 °C 1000.2 hPa NW 18.5 km/h 18.5 km/h 91 % 0.0 mm 111.0 W/m2 SCT
11:20 4.6 °C 3.3 °C 1000.2 hPa WNW 18.5 km/h 18.5 km/h 91 % 0.0 mm 102.0 W/m2 SCT
11:25 4.7 °C 3.5 °C 1000.2 hPa WNW 18.5 km/h 18.5 km/h 92 % 0.0 mm 100.0 W/m2 SCT
11:30 4.3 °C 3.2 °C 999.9 hPa West 18.5 km/h 18.5 km/h 92 % 0.0 mm 105.0 W/m2 SCT
11:35 4.3 °C 2.9 °C 999.9 hPa West 18.5 km/h 18.5 km/h 91 % 0.0 mm 113.0 W/m2 BKN
11:40 4.3 °C 2.9 °C 999.9 hPa West 18.5 km/h 18.5 km/h 91 % 0.0 mm 121.0 W/m2 BKN
11:45 4.5 °C 3.3 °C 999.9 hPa West 18.5 km/h 18.5 km/h 92 % 0.0 mm 134.0 W/m2 BKN
11:50 4.6 °C 3.4 °C 999.5 hPa West 18.5 km/h 18.5 km/h 92 % 0.0 mm 130.0 W/m2 BKN
11:55 4.4 °C 3.3 °C 999.5 hPa WSW 18.5 km/h 18.5 km/h 92 % 0.0 mm 118.0 W/m2 BKN
12:00 4.4 °C 3.2 °C 999.5 hPa SW 18.5 km/h   92 % 0.0 mm 118.0 W/m2 BKN
12:05 4.4 °C 3.2 °C 999.5 hPa WSW 18.5 km/h 18.5 km/h 92 % 0.0 mm 109.0 W/m2 BKN
12:10 4.6 °C 3.4 °C 999.5 hPa WSW 18.5 km/h 18.5 km/h 92 % 0.0 mm 102.0 W/m2 BKN
12:15 4.5 °C 3.3 °C 999.5 hPa WNW 18.5 km/h 18.5 km/h 92 % 0.0 mm 104.0 W/m2 BKN
12:20 4.6 °C 3.4 °C 999.5 hPa WSW 18.5 km/h 18.5 km/h 92 % 0.0 mm 102.0 W/m2 BKN
12:26 4.6 °C 3.4 °C 999.5 hPa WSW 18.5 km/h 18.5 km/h 92 % 0.0 mm 104.0 W/m2 BKN
12:31 4.4 °C 3.2 °C 999.2 hPa WSW 18.5 km/h 18.5 km/h 92 % 0.0 mm 95.0 W/m2 BKN
12:36 4.2 °C 3.1 °C 999.2 hPa West 18.5 km/h 18.5 km/h 92 % 0.0 mm 79.0 W/m2 SCT
12:41 4.2 °C 3.0 °C 999.2 hPa WSW 18.5 km/h 18.5 km/h 92 % 0.0 mm 74.0 W/m2 SCT
12:46 4.1 °C 2.9 °C 999.2 hPa West 18.5 km/h 18.5 km/h 92 % 0.0 mm 91.0 W/m2 SCT
12:51 4.1 °C 3.0 °C 999.5 hPa West 18.5 km/h 18.5 km/h 93 % 0.0 mm 63.0 W/m2 SCT
12:56 4.0 °C 2.9 °C 999.2 hPa WSW 18.5 km/h 18.5 km/h 93 % 0.0 mm 70.0 W/m2 SCT
13:01 3.8 °C 2.8 °C 999.2 hPa West 19.3 km/h 19.3 km/h 93 % 0.0 mm 63.0 W/m2 SCT
13:06 3.8 °C 2.7 °C 999.2 hPa West 19.3 km/h 19.3 km/h 93 % 0.0 mm 74.0 W/m2 SCT
13:11 3.7 °C 2.7 °C 999.2 hPa WNW 20.9 km/h 20.9 km/h 93 % 0.0 mm 70.0 W/m2 SCT
13:16 3.7 °C 2.7 °C 999.2 hPa WNW 20.9 km/h 20.9 km/h 93 % 0.0 mm 69.0 W/m2 SCT
13:21 3.6 °C 2.6 °C 998.9 hPa WNW 20.9 km/h 20.9 km/h 93 % 0.0 mm 58.0 W/m2 SCT
13:26 3.6 °C 2.6 °C 999.2 hPa WSW 20.9 km/h 20.9 km/h 93 % 0.0 mm 44.0 W/m2 SCT
13:31 3.6 °C 2.6 °C 999.2 hPa WSW 20.9 km/h 20.9 km/h 93 % 0.0 mm 42.0 W/m2 SCT
13:36 3.6 °C 2.6 °C 999.2 hPa West 22.5 km/h 22.5 km/h 93 % 0.0 mm 44.0 W/m2 SCT
13:38 3.7 °C 2.8 °C 999.2 hPa West 22.5 km/h 22.5 km/h 94 % 0.0 mm 44.0 W/m2 SCT
13:43 3.7 °C 2.8 °C 999.2 hPa West 22.5 km/h 22.5 km/h 94 % 0.0 mm 46.0 W/m2 SCT
13:48 3.6 °C 2.7 °C 998.9 hPa WNW 22.5 km/h 22.5 km/h 94 % 0.0 mm 60.0 W/m2 SCT
13:53 3.7 °C 2.8 °C 998.9 hPa West 22.5 km/h 22.5 km/h 94 % 0.0 mm 58.0 W/m2 SCT
13:58 3.8 °C 2.9 °C 998.9 hPa WNW 22.5 km/h 22.5 km/h 94 % 0.0 mm 58.0 W/m2 SCT
14:03 3.7 °C 2.8 °C 998.5 hPa West 22.5 km/h 22.5 km/h 94 % 0.0 mm 62.0 W/m2 SCT
14:08 3.8 °C 2.9 °C 998.5 hPa WSW 22.5 km/h 22.5 km/h 94 % 0.0 mm 54.0 W/m2 SCT
14:13 3.8 °C 2.9 °C 998.5 hPa WNW 22.5 km/h 22.5 km/h 94 % 0.0 mm 58.0 W/m2 SCT
14:18 3.8 °C 2.9 °C 998.2 hPa WNW 22.5 km/h 22.5 km/h 94 % 0.0 mm 62.0 W/m2 SCT
14:23 3.8 °C 2.9 °C 998.2 hPa WNW 22.5 km/h 22.5 km/h 94 % 0.0 mm 60.0 W/m2 SCT
14:28 3.8 °C 2.9 °C 998.2 hPa West 22.5 km/h 22.5 km/h 94 % 0.0 mm 65.0 W/m2 SCT
14:33 3.9 °C 3.0 °C 998.2 hPa WNW 22.5 km/h 22.5 km/h 94 % 0.0 mm 63.0 W/m2 SCT
14:38 3.9 °C 3.0 °C 998.2 hPa WSW 22.5 km/h 22.5 km/h 94 % 0.0 mm 65.0 W/m2 SCT
14:43 3.9 °C 3.1 °C 997.9 hPa WNW 22.5 km/h 22.5 km/h 94 % 0.0 mm 58.0 W/m2 SCT
14:48 3.9 °C 3.1 °C 997.9 hPa West 22.5 km/h 22.5 km/h 94 % 0.0 mm 49.0 W/m2 SCT
14:53 3.9 °C 3.0 °C 997.9 hPa West 22.5 km/h 22.5 km/h 94 % 0.0 mm 47.0 W/m2 SCT
14:58 3.9 °C 3.0 °C 997.9 hPa West 22.5 km/h 22.5 km/h 94 % 0.0 mm 56.0 W/m2 SCT
15:03 3.9 °C 3.1 °C 997.9 hPa SW 22.5 km/h 22.5 km/h 94 % 0.0 mm 49.0 W/m2 SCT
15:08 3.9 °C 3.1 °C 997.5 hPa WSW 22.5 km/h 22.5 km/h 94 % 0.0 mm 56.0 W/m2 SCT
15:13 3.9 °C 3.0 °C 997.9 hPa SW 22.5 km/h 22.5 km/h 94 % 0.0 mm 37.0 W/m2 SCT
15:18 3.8 °C 2.9 °C 997.5 hPa WSW 22.5 km/h 22.5 km/h 94 % 0.0 mm 30.0 W/m2 SCT
15:23 3.7 °C 2.8 °C 997.9 hPa WSW 22.5 km/h 22.5 km/h 94 % 0.0 mm 25.0 W/m2 SCT
15:28 3.6 °C 2.7 °C 997.9 hPa SW 22.5 km/h 22.5 km/h 94 % 0.0 mm 26.0 W/m2 SCT
15:33 3.6 °C 2.7 °C 997.9 hPa SW 22.5 km/h 22.5 km/h 94 % 0.0 mm 26.0 W/m2 SCT
15:38 3.6 °C 2.7 °C 997.9 hPa WSW 22.5 km/h 22.5 km/h 94 % 0.0 mm 25.0 W/m2 SCT
15:43 3.7 °C 2.8 °C 998.2 hPa West 22.5 km/h 22.5 km/h 94 % 0.0 mm 21.0 W/m2 SCT
15:48 3.7 °C 2.8 °C 997.9 hPa West 22.5 km/h 22.5 km/h 94 % 0.0 mm 16.0 W/m2 SCT
15:53 3.7 °C 2.8 °C 998.2 hPa WSW 22.5 km/h 22.5 km/h 94 % 0.0 mm 14.0 W/m2 SCT
15:58 3.7 °C 2.8 °C 997.9 hPa West 22.5 km/h 22.5 km/h 94 % 0.0 mm 11.0 W/m2 SCT
16:03 3.7 °C 2.8 °C 998.2 hPa West 22.5 km/h 22.5 km/h 94 % 0.0 mm 12.0 W/m2 SCT
16:08 3.4 °C 2.6 °C 997.9 hPa West 22.5 km/h 22.5 km/h 94 % 0.0 mm 16.0 W/m2 SCT
16:13 3.5 °C 2.6 °C 998.2 hPa WSW 22.5 km/h 22.5 km/h 94 % 0.0 mm 12.0 W/m2 SCT
16:18 3.4 °C 2.6 °C 998.2 hPa WSW 22.5 km/h 22.5 km/h 94 % 0.0 mm 7.0 W/m2 SCT
16:23 3.4 °C 2.6 °C 997.9 hPa WSW 22.5 km/h 22.5 km/h 94 % 0.0 mm 5.0 W/m2 SCT
16:28 3.4 °C 2.6 °C 997.9 hPa West 22.5 km/h 22.5 km/h 94 % 0.0 mm 0.0 W/m2 SCT
16:33 3.4 °C 2.5 °C 997.9 hPa WNW 22.5 km/h 22.5 km/h 94 % 0.0 mm 0.0 W/m2 SCT
16:38 3.4 °C 2.5 °C 997.9 hPa West 22.5 km/h 22.5 km/h 94 % 0.0 mm 0.0 W/m2 SCT
16:43 3.3 °C 2.4 °C 997.9 hPa WNW 22.5 km/h 22.5 km/h 94 % 0.0 mm 0.0 W/m2 SCT
16:48 3.3 °C 2.4 °C 997.9 hPa WSW 22.5 km/h 22.5 km/h 94 % 0.0 mm 0.0 W/m2 SCT
16:53 3.3 °C 2.4 °C 997.9 hPa WSW 22.5 km/h 22.5 km/h 94 % 0.0 mm 0.0 W/m2 SCT
16:58 3.2 °C 2.3 °C 997.9 hPa West 22.5 km/h 22.5 km/h 94 % 0.0 mm 0.0 W/m2 SCT
17:03 3.3 °C 2.4 °C 997.9 hPa WNW 22.5 km/h 22.5 km/h 94 % 0.0 mm 0.0 W/m2 SCT
17:09 3.3 °C 2.4 °C 997.9 hPa West 22.5 km/h 22.5 km/h 94 % 0.0 mm 0.0 W/m2 SCT
17:14 3.3 °C 2.4 °C 997.9 hPa West 22.5 km/h 22.5 km/h 94 % 0.0 mm 0.0 W/m2 SCT
17:19 3.3 °C 2.4 °C 997.9 hPa WNW 22.5 km/h 22.5 km/h 94 % 0.0 mm 0.0 W/m2 SCT
17:24 3.2 °C 2.3 °C 997.9 hPa West 22.5 km/h 22.5 km/h 94 % 0.0 mm 0.0 W/m2 SCT
17:29 3.2 °C 2.4 °C 997.9 hPa WNW 22.5 km/h 22.5 km/h 95 % 0.0 mm 0.0 W/m2 SCT
17:34 3.1 °C 2.4 °C 997.9 hPa West 22.5 km/h 22.5 km/h 95 % 0.0 mm 0.0 W/m2 SCT
17:39 3.1 °C 2.2 °C 997.5 hPa West 22.5 km/h 22.5 km/h 94 % 0.0 mm 0.0 W/m2 SCT
17:44 3.0 °C 2.1 °C 997.5 hPa WNW 22.5 km/h 22.5 km/h 94 % 0.0 mm 0.0 W/m2 SCT
17:49 3.0 °C 2.3 °C 997.5 hPa WNW 22.5 km/h 22.5 km/h 95 % 0.0 mm 0.0 W/m2 SCT
17:54 3.0 °C 2.3 °C 997.9 hPa WNW 22.5 km/h 22.5 km/h 95 % 0.0 mm 0.0 W/m2 SCT
17:59 3.0 °C 2.3 °C 997.5 hPa West 22.5 km/h 22.5 km/h 95 % 0.0 mm 0.0 W/m2 SCT
18:04 3.1 °C 2.3 °C 997.5 hPa WSW 22.5 km/h 22.5 km/h 95 % 0.0 mm 0.0 W/m2 SCT
18:09 3.1 °C 2.3 °C 997.9 hPa West 22.5 km/h 22.5 km/h 95 % 0.0 mm 0.0 W/m2 SCT
18:14 3.1 °C 2.3 °C 997.9 hPa West 22.5 km/h 22.5 km/h 95 % 0.0 mm 0.0 W/m2 SCT
18:19 3.1 °C 2.3 °C 997.9 hPa WSW 22.5 km/h 22.5 km/h 95 % 0.0 mm 0.0 W/m2 SCT
18:24 3.1 °C 2.3 °C 997.9 hPa WSW 22.5 km/h 22.5 km/h 95 % 0.0 mm 0.0 W/m2 SCT
18:29 3.1 °C 2.4 °C 997.9 hPa West 22.5 km/h 22.5 km/h 95 % 0.0 mm 0.0 W/m2 SCT
18:34 3.2 °C 2.4 °C 997.9 hPa West 22.5 km/h 22.5 km/h 95 % 0.0 mm 0.0 W/m2 SCT
18:39 3.2 °C 2.4 °C 997.9 hPa West 22.5 km/h 22.5 km/h 95 % 0.0 mm 0.0 W/m2 SCT
18:44 3.2 °C 2.4 °C 997.9 hPa West 22.5 km/h 22.5 km/h 95 % 0.0 mm 0.0 W/m2 SCT
18:47 3.2 °C 2.4 °C 997.9 hPa West 22.5 km/h 22.5 km/h 95 % 0.0 mm 0.0 W/m2 SCT
18:50 3.2 °C 2.4 °C 997.9 hPa West 22.5 km/h 22.5 km/h 95 % 0.0 mm 0.0 W/m2 SCT
18:55 3.1 °C 2.4 °C 998.2 hPa WNW 22.5 km/h 22.5 km/h 95 % 0.0 mm 0.0 W/m2 SCT
18:56 3.1 °C 2.4 °C 998.2 hPa WNW 22.5 km/h 22.5 km/h 95 % 0.0 mm 0.0 W/m2 SCT
19:01 3.1 °C 2.3 °C 997.9 hPa West 22.5 km/h 22.5 km/h 95 % 0.0 mm 0.0 W/m2 SCT
19:06 3.1 °C 2.3 °C 998.2 hPa WNW 22.5 km/h 22.5 km/h 95 % 0.0 mm 0.0 W/m2 OVC
19:11 3.1 °C 2.3 °C 998.2 hPa West 22.5 km/h 22.5 km/h 95 % 0.0 mm 0.0 W/m2 OVC
19:16 2.9 °C 2.2 °C 998.2 hPa WSW 22.5 km/h 22.5 km/h 95 % 0.0 mm 0.0 W/m2 OVC
19:21 2.8 °C 2.1 °C 997.9 hPa WSW 22.5 km/h 22.5 km/h 95 % 0.0 mm 0.0 W/m2 OVC
19:26 2.6 °C 1.9 °C 997.9 hPa West 22.5 km/h 22.5 km/h 95 % 0.0 mm 0.0 W/m2 OVC
19:31 2.6 °C 1.9 °C 997.9 hPa WSW 22.5 km/h 22.5 km/h 95 % 0.0 mm 0.0 W/m2 OVC
19:36 2.5 °C 1.8 °C 998.2 hPa West 22.5 km/h 22.5 km/h 95 % 0.0 mm 0.0 W/m2 OVC
19:37 2.5 °C 1.8 °C 998.2 hPa West 22.5 km/h 22.5 km/h 95 % 0.0 mm 0.0 W/m2 OVC
19:42 2.5 °C 1.8 °C 998.2 hPa West 22.5 km/h 22.5 km/h 95 % 0.0 mm 0.0 W/m2 OVC
19:47 2.4 °C 1.7 °C 998.2 hPa West 22.5 km/h 22.5 km/h 95 % 0.0 mm 0.0 W/m2 OVC
19:52 2.4 °C 1.7 °C 998.2 hPa West 22.5 km/h   95 % 0.0 mm 0.0 W/m2 OVC
19:57 2.4 °C 1.7 °C 998.2 hPa West 22.5 km/h 22.5 km/h 95 % 0.0 mm 0.0 W/m2 OVC
20:02 2.3 °C 1.6 °C 998.2 hPa WSW 22.5 km/h 22.5 km/h 95 % 0.0 mm 0.0 W/m2 OVC
20:07 2.1 °C 1.3 °C 998.2 hPa WSW 22.5 km/h 22.5 km/h 95 % 0.0 mm 0.0 W/m2 OVC
20:12 1.9 °C 1.2 °C 997.9 hPa West 22.5 km/h 22.5 km/h 95 % 0.0 mm 0.0 W/m2 OVC
20:17 2.0 °C 1.3 °C 997.9 hPa WSW 22.5 km/h 22.5 km/h 95 % 0.0 mm 0.0 W/m2 OVC
20:22 1.9 °C 1.2 °C 997.9 hPa WSW 22.5 km/h 22.5 km/h 95 % 0.0 mm 0.0 W/m2 OVC
20:27 1.9 °C 1.2 °C 997.9 hPa West 22.5 km/h 22.5 km/h 95 % 0.0 mm 0.0 W/m2 OVC
20:32 2.1 °C 1.3 °C 997.9 hPa WNW 22.5 km/h 22.5 km/h 95 % 0.0 mm 0.0 W/m2 OVC
20:37 2.1 °C 1.3 °C 997.9 hPa WNW 22.5 km/h 22.5 km/h 95 % 0.0 mm 0.0 W/m2 OVC
20:42 2.0 °C 1.3 °C 997.9 hPa WNW 22.5 km/h 22.5 km/h 95 % 0.0 mm 0.0 W/m2 OVC
20:47 1.9 °C 1.2 °C 997.9 hPa WNW 22.5 km/h 22.5 km/h 95 % 0.0 mm 0.0 W/m2 OVC
20:53 1.9 °C 1.2 °C 997.9 hPa NW 22.5 km/h 22.5 km/h 95 % 0.0 mm 0.0 W/m2 OVC
20:59 1.8 °C 1.1 °C 998.2 hPa NNW 22.5 km/h 22.5 km/h 95 % 0.0 mm 0.0 W/m2 OVC
21:04 1.8 °C 1.1 °C 998.2 hPa NNW 22.5 km/h 22.5 km/h 95 % 0.0 mm 0.0 W/m2 OVC
21:09 1.8 °C 1.1 °C 998.2 hPa NNW 22.5 km/h 22.5 km/h 95 % 0.0 mm 0.0 W/m2 OVC
21:14 1.7 °C 1.0 °C 998.2 hPa NNW 22.5 km/h 22.5 km/h 95 % 0.0 mm 0.0 W/m2 OVC
21:19 1.8 °C 1.1 °C 998.2 hPa WNW 22.5 km/h 22.5 km/h 95 % 0.0 mm 0.0 W/m2 OVC
21:24 1.8 °C 1.1 °C 998.2 hPa WNW 22.5 km/h 22.5 km/h 95 % 0.0 mm 0.0 W/m2 OVC
21:29 1.5 °C 0.8 °C 998.5 hPa WNW 22.5 km/h 22.5 km/h 95 % 0.0 mm 0.0 W/m2 OVC
21:34 1.5 °C 0.8 °C 998.5 hPa WNW 22.5 km/h 22.5 km/h 95 % 0.0 mm 0.0 W/m2 OVC
21:39 1.3 °C 0.6 °C 998.5 hPa WNW 22.5 km/h 22.5 km/h 95 % 0.0 mm 0.0 W/m2 OVC
21:44 1.3 °C 0.6 °C 998.5 hPa WNW 22.5 km/h 22.5 km/h 95 % 0.0 mm 0.0 W/m2 OVC
21:49 1.1 °C 0.4 °C 998.5 hPa West 22.5 km/h 22.5 km/h 95 % 0.0 mm 0.0 W/m2 OVC
21:54 1.1 °C 0.4 °C 998.5 hPa West 22.5 km/h 22.5 km/h 95 % 0.0 mm 0.0 W/m2 OVC
21:59 0.9 °C 0.2 °C 998.5 hPa West 22.5 km/h 22.5 km/h 95 % 0.0 mm 0.0 W/m2 OVC
22:04 0.9 °C 0.2 °C 998.5 hPa WNW 22.5 km/h 22.5 km/h 95 % 0.0 mm 0.0 W/m2 OVC
22:09 1.0 °C 0.3 °C 998.5 hPa WNW 22.5 km/h 22.5 km/h 95 % 0.0 mm 0.0 W/m2 OVC
22:14 0.9 °C 0.2 °C 998.5 hPa WNW 22.5 km/h   95 % 0.0 mm 0.0 W/m2 OVC
22:19 0.7 °C 0.0 °C 998.5 hPa WNW 22.5 km/h   95 % 0.0 mm 0.0 W/m2 OVC
22:24 0.7 °C 0.0 °C 998.5 hPa WNW 22.5 km/h   95 % 0.0 mm 0.0 W/m2 OVC
22:29 0.8 °C 0.1 °C 998.5 hPa WNW 22.5 km/h   95 % 0.0 mm 0.0 W/m2 OVC
22:34 0.8 °C 0.1 °C 998.5 hPa WNW 22.5 km/h 22.5 km/h 95 % 0.0 mm 0.0 W/m2 OVC
22:39 0.8 °C 0.1 °C 998.2 hPa WNW 22.5 km/h 22.5 km/h 95 % 0.0 mm 0.0 W/m2 OVC
Stazione Meteorologica MeteoMincio Rivalta s/M (MN)
Con i complimenti di Weather Underground - 3.75 mb


METEO PILLOLE
Maggior quantità di pioggia caduta in un ora
Holt (263.11 m), Missouri - USA
il 22 giugno 1947 caddero 305mm.

Share
Non seguire questo link o sarai bannato dal sito!